アピア の空港の天気 - METARとTAF

ファレオロ国際空港(サモア) ( NSFA / APW ) - サモア アピア
飛行場実況気象(Metar)
観測時間02/18 13:00 WSDT (02/17 23:00 UTC)
風向・風速西北西 2m/s
視程10km以上
天気現象
少しの雲 雲底高度 610m
全天の4割程度の雲 雲底高度 670m
全天の8割程度の雲 雲底高度 7320m
気温31℃
湿度66%
気圧1009hPa
METARNSFA 172300Z 30004KT 9999 FEW020CB SCT022 BKN240 31/24 Q1009 RMK CB TO WNW
過去の天気等 Google飛行場航空写真 Wunderground天気予報

過去48時間のMETAR

飛行場予報(TAF)
発表時間: 2/18 07:03 WSDT (2/17 17:03 UTC)
予報対象時間: 18日8時 WSDT ~ 19日8時 WSDT
風向・風速西 3m/s
視程10km以上
天気現象弱いしゅう雨
全天の4割程度の雲 雲底高度 550m
全天の8割程度の雲 雲底高度 3050m
18日8時 WSDT ~ 18日14時 WSDT に 確率 30% で一時的に
視程5000m
天気現象雷雨
少しの積乱雲 雲底高度 550m
18日14時 WSDT ~ 18日20時 WSDT に 確率 30% で一時的に
視程5000m
天気現象しゅう雨
全天の8割程度の雲 雲底高度 460m
TAF NSFA 171703Z 1718/1818 26005KT 9999 -SHRA SCT018 BKN100
PROB30 TEMPO 1718/1724 5000 TSRA FEW018CB
PROB30 TEMPO 1800/1806 5000 SHRA BKN015